sensor_id;sensor_type;location;lat;lon;timestamp;pressure;altitude;pressure_sealevel;temperature;humidity
72685;BME280;61365;52.162;4.500;2023-02-03T00:01:48;102446.56;;;9.09;84.83
72685;BME280;61365;52.162;4.500;2023-02-03T00:04:15;102442.97;;;9.06;84.96
72685;BME280;61365;52.162;4.500;2023-02-03T00:06:41;102454.00;;;9.24;84.34
72685;BME280;61365;52.162;4.500;2023-02-03T00:09:11;102457.63;;;8.99;85.23
72685;BME280;61365;52.162;4.500;2023-02-03T00:11:38;102449.13;;;9.06;85.68
72685;BME280;61365;52.162;4.500;2023-02-03T00:14:04;102441.91;;;8.99;85.78
72685;BME280;61365;52.162;4.500;2023-02-03T00:16:33;102435.00;;;9.30;84.85
72685;BME280;61365;52.162;4.500;2023-02-03T00:19:00;102441.00;;;9.27;84.64
72685;BME280;61365;52.162;4.500;2023-02-03T00:21:26;102445.91;;;9.16;85.27
72685;BME280;61365;52.162;4.500;2023-02-03T00:23:53;102441.19;;;9.05;84.45
72685;BME280;61365;52.162;4.500;2023-02-03T00:26:19;102438.03;;;9.15;83.87
72685;BME280;61365;52.162;4.500;2023-02-03T00:28:46;102455.00;;;9.28;83.15
72685;BME280;61365;52.162;4.500;2023-02-03T00:31:20;102463.38;;;9.16;84.38
72685;BME280;61365;52.162;4.500;2023-02-03T00:33:53;102469.91;;;9.30;83.50
72685;BME280;61365;52.162;4.500;2023-02-03T00:36:21;102462.72;;;9.23;83.89
72685;BME280;61365;52.162;4.500;2023-02-03T00:38:48;102461.59;;;9.15;83.98
72685;BME280;61365;52.162;4.500;2023-02-03T00:41:15;102467.47;;;9.08;85.42
72685;BME280;61365;52.162;4.500;2023-02-03T00:43:42;102472.59;;;9.32;84.30
72685;BME280;61365;52.162;4.500;2023-02-03T00:46:09;102446.25;;;9.27;84.27
72685;BME280;61365;52.162;4.500;2023-02-03T00:48:35;102456.16;;;9.09;85.30
72685;BME280;61365;52.162;4.500;2023-02-03T00:51:01;102470.94;;;9.07;84.94
72685;BME280;61365;52.162;4.500;2023-02-03T00:53:28;102458.16;;;9.16;85.08
72685;BME280;61365;52.162;4.500;2023-02-03T00:55:54;102455.22;;;9.07;84.64
72685;BME280;61365;52.162;4.500;2023-02-03T00:58:21;102459.00;;;9.16;85.34
72685;BME280;61365;52.162;4.500;2023-02-03T01:00:47;102461.09;;;9.27;84.42
72685;BME280;61365;52.162;4.500;2023-02-03T01:03:15;102455.94;;;9.30;84.04
72685;BME280;61365;52.162;4.500;2023-02-03T01:05:41;102459.94;;;9.17;84.15
72685;BME280;61365;52.162;4.500;2023-02-03T01:08:08;102461.28;;;9.33;83.97
72685;BME280;61365;52.162;4.500;2023-02-03T01:10:36;102451.69;;;9.34;83.57
72685;BME280;61365;52.162;4.500;2023-02-03T01:13:04;102433.31;;;9.32;82.84
72685;BME280;61365;52.162;4.500;2023-02-03T01:15:30;102437.34;;;9.22;83.50
72685;BME280;61365;52.162;4.500;2023-02-03T01:17:56;102426.53;;;9.40;82.91
72685;BME280;61365;52.162;4.500;2023-02-03T01:20:23;102436.16;;;9.40;82.82
72685;BME280;61365;52.162;4.500;2023-02-03T01:22:49;102440.25;;;9.31;83.77
72685;BME280;61365;52.162;4.500;2023-02-03T01:25:16;102438.25;;;9.23;82.44
72685;BME280;61365;52.162;4.500;2023-02-03T01:27:42;102421.28;;;9.39;81.74
72685;BME280;61365;52.162;4.500;2023-02-03T01:30:09;102421.38;;;9.42;83.07
72685;BME280;61365;52.162;4.500;2023-02-03T01:32:36;102407.75;;;9.55;81.19
72685;BME280;61365;52.162;4.500;2023-02-03T01:35:02;102409.44;;;9.53;80.30
72685;BME280;61365;52.162;4.500;2023-02-03T01:37:29;102414.34;;;9.41;81.37
72685;BME280;61365;52.162;4.500;2023-02-03T01:39:55;102427.44;;;9.41;80.69
72685;BME280;61365;52.162;4.500;2023-02-03T01:42:22;102440.19;;;9.59;80.34
72685;BME280;61365;52.162;4.500;2023-02-03T01:44:50;102435.72;;;9.55;80.61
72685;BME280;61365;52.162;4.500;2023-02-03T01:47:18;102427.88;;;9.56;81.38
72685;BME280;61365;52.162;4.500;2023-02-03T01:50:12;102417.47;;;9.58;80.47
72685;BME280;61365;52.162;4.500;2023-02-03T01:53:10;102403.34;;;9.54;80.26
72685;BME280;61365;52.162;4.500;2023-02-03T01:55:40;102401.59;;;9.53;81.37
72685;BME280;61365;52.162;4.500;2023-02-03T01:58:28;102406.19;;;9.62;82.13
72685;BME280;61365;52.162;4.500;2023-02-03T02:00:58;102407.66;;;9.83;78.91
72685;BME280;61365;52.162;4.500;2023-02-03T02:03:40;102398.38;;;9.64;80.66
72685;BME280;61365;52.162;4.500;2023-02-03T02:06:11;102391.00;;;9.50;81.65
72685;BME280;61365;52.162;4.500;2023-02-03T02:08:41;102380.50;;;9.49;81.58
72685;BME280;61365;52.162;4.500;2023-02-03T02:11:10;102380.69;;;9.55;81.20
72685;BME280;61365;52.162;4.500;2023-02-03T02:13:37;102376.50;;;9.63;80.50
72685;BME280;61365;52.162;4.500;2023-02-03T02:16:18;102371.72;;;9.79;79.36
72685;BME280;61365;52.162;4.500;2023-02-03T02:27:41;102390.31;;;9.56;81.54
72685;BME280;61365;52.162;4.500;2023-02-03T02:33:28;102404.50;;;9.32;82.49
72685;BME280;61365;52.162;4.500;2023-02-03T02:41:57;102387.22;;;9.39;81.83
72685;BME280;61365;52.162;4.500;2023-02-03T02:44:48;102381.44;;;9.51;81.71
72685;BME280;61365;52.162;4.500;2023-02-03T02:47:20;102397.25;;;9.54;81.75
72685;BME280;61365;52.162;4.500;2023-02-03T02:52:24;102386.06;;;9.29;82.01
72685;BME280;61365;52.162;4.500;2023-02-03T02:54:58;102370.84;;;9.48;82.50
72685;BME280;61365;52.162;4.500;2023-02-03T02:57:31;102363.81;;;9.45;83.02
72685;BME280;61365;52.162;4.500;2023-02-03T03:00:00;102363.44;;;9.32;82.61
72685;BME280;61365;52.162;4.500;2023-02-03T03:02:33;102355.81;;;9.40;82.25
72685;BME280;61365;52.162;4.500;2023-02-03T03:05:11;102362.53;;;9.63;81.80
72685;BME280;61365;52.162;4.500;2023-02-03T03:07:51;102368.25;;;9.48;82.21
72685;BME280;61365;52.162;4.500;2023-02-03T03:10:30;102361.50;;;9.56;80.86
72685;BME280;61365;52.162;4.500;2023-02-03T03:13:04;102362.91;;;9.44;81.78
72685;BME280;61365;52.162;4.500;2023-02-03T03:15:35;102368.31;;;9.51;82.05
72685;BME280;61365;52.162;4.500;2023-02-03T03:18:12;102372.53;;;9.45;82.63
72685;BME280;61365;52.162;4.500;2023-02-03T03:20:48;102370.19;;;9.55;81.41
72685;BME280;61365;52.162;4.500;2023-02-03T03:23:24;102379.97;;;9.62;80.95
72685;BME280;61365;52.162;4.500;2023-02-03T03:26:02;102359.81;;;9.58;80.60
72685;BME280;61365;52.162;4.500;2023-02-03T03:28:41;102369.94;;;9.47;81.54
72685;BME280;61365;52.162;4.500;2023-02-03T03:31:14;102381.75;;;9.63;82.32
72685;BME280;61365;52.162;4.500;2023-02-03T03:33:43;102374.75;;;9.62;81.50
72685;BME280;61365;52.162;4.500;2023-02-03T03:36:30;102376.44;;;9.60;81.21
72685;BME280;61365;52.162;4.500;2023-02-03T03:39:11;102374.88;;;9.67;80.21
72685;BME280;61365;52.162;4.500;2023-02-03T03:41:55;102360.41;;;9.49;81.06
72685;BME280;61365;52.162;4.500;2023-02-03T03:44:29;102373.09;;;9.34;82.17
72685;BME280;61365;52.162;4.500;2023-02-03T03:49:44;102367.19;;;9.41;82.04
72685;BME280;61365;52.162;4.500;2023-02-03T03:52:20;102370.41;;;9.63;81.94
72685;BME280;61365;52.162;4.500;2023-02-03T03:54:52;102384.22;;;9.57;82.18
72685;BME280;61365;52.162;4.500;2023-02-03T03:57:25;102376.09;;;9.48;80.97
72685;BME280;61365;52.162;4.500;2023-02-03T03:59:59;102384.38;;;9.63;82.52
72685;BME280;61365;52.162;4.500;2023-02-03T04:02:31;102372.38;;;9.39;82.45
72685;BME280;61365;52.162;4.500;2023-02-03T04:05:02;102381.03;;;9.37;83.24
72685;BME280;61365;52.162;4.500;2023-02-03T04:07:37;102394.16;;;9.38;82.97
72685;BME280;61365;52.162;4.500;2023-02-03T04:10:32;102393.00;;;9.28;83.05
72685;BME280;61365;52.162;4.500;2023-02-03T04:12:57;102391.09;;;9.53;82.15
72685;BME280;61365;52.162;4.500;2023-02-03T04:15:24;102384.44;;;9.34;83.12
72685;BME280;61365;52.162;4.500;2023-02-03T04:17:51;102377.59;;;9.39;82.57
72685;BME280;61365;52.162;4.500;2023-02-03T04:20:17;102376.50;;;9.31;83.01
72685;BME280;61365;52.162;4.500;2023-02-03T04:22:44;102363.72;;;9.42;82.47
72685;BME280;61365;52.162;4.500;2023-02-03T04:25:10;102376.75;;;9.40;83.06
72685;BME280;61365;52.162;4.500;2023-02-03T04:27:37;102375.19;;;9.47;81.30
72685;BME280;61365;52.162;4.500;2023-02-03T04:30:04;102373.13;;;9.35;81.88
72685;BME280;61365;52.162;4.500;2023-02-03T04:32:31;102385.78;;;9.50;81.09
72685;BME280;61365;52.162;4.500;2023-02-03T04:35:00;102394.25;;;9.41;81.44
72685;BME280;61365;52.162;4.500;2023-02-03T04:37:28;102372.94;;;9.59;80.81
72685;BME280;61365;52.162;4.500;2023-02-03T04:39:57;102387.00;;;9.31;81.89
72685;BME280;61365;52.162;4.500;2023-02-03T04:42:24;102389.88;;;9.40;82.43
72685;BME280;61365;52.162;4.500;2023-02-03T04:44:51;102387.78;;;9.28;81.85
72685;BME280;61365;52.162;4.500;2023-02-03T04:47:18;102405.38;;;9.32;82.18
72685;BME280;61365;52.162;4.500;2023-02-03T04:49:45;102404.13;;;9.20;82.42
72685;BME280;61365;52.162;4.500;2023-02-03T04:52:13;102395.78;;;9.33;81.72
72685;BME280;61365;52.162;4.500;2023-02-03T04:54:40;102395.69;;;9.30;83.16
72685;BME280;61365;52.162;4.500;2023-02-03T04:57:06;102388.63;;;9.27;82.70
72685;BME280;61365;52.162;4.500;2023-02-03T04:59:33;102374.97;;;9.39;82.73
72685;BME280;61365;52.162;4.500;2023-02-03T05:02:01;102368.13;;;9.43;82.33
72685;BME280;61365;52.162;4.500;2023-02-03T05:04:31;102383.84;;;9.43;83.20
72685;BME280;61365;52.162;4.500;2023-02-03T05:06:57;102380.00;;;9.31;82.62
72685;BME280;61365;52.162;4.500;2023-02-03T05:09:24;102383.88;;;9.44;82.56
72685;BME280;61365;52.162;4.500;2023-02-03T05:11:51;102378.97;;;9.26;82.76
72685;BME280;61365;52.162;4.500;2023-02-03T05:14:18;102402.78;;;9.34;82.84
72685;BME280;61365;52.162;4.500;2023-02-03T05:16:44;102383.66;;;9.37;80.78
72685;BME280;61365;52.162;4.500;2023-02-03T05:19:11;102394.00;;;9.32;82.52
72685;BME280;61365;52.162;4.500;2023-02-03T05:21:38;102387.31;;;9.42;82.83
72685;BME280;61365;52.162;4.500;2023-02-03T05:24:05;102383.19;;;9.21;83.18
72685;BME280;61365;52.162;4.500;2023-02-03T05:26:33;102409.56;;;9.27;83.05
72685;BME280;61365;52.162;4.500;2023-02-03T05:29:01;102397.94;;;9.18;83.41
72685;BME280;61365;52.162;4.500;2023-02-03T05:31:28;102397.91;;;9.46;82.47
72685;BME280;61365;52.162;4.500;2023-02-03T05:33:54;102393.44;;;9.13;83.17
72685;BME280;61365;52.162;4.500;2023-02-03T05:36:20;102395.53;;;9.25;82.39
72685;BME280;61365;52.162;4.500;2023-02-03T05:38:47;102383.25;;;9.23;83.63
72685;BME280;61365;52.162;4.500;2023-02-03T05:41:14;102373.22;;;9.08;83.74
72685;BME280;61365;52.162;4.500;2023-02-03T05:43:59;102390.56;;;9.04;84.48
72685;BME280;61365;52.162;4.500;2023-02-03T05:46:25;102377.72;;;9.13;83.61
72685;BME280;61365;52.162;4.500;2023-02-03T05:48:52;102389.78;;;9.08;84.21
72685;BME280;61365;52.162;4.500;2023-02-03T05:51:18;102379.19;;;9.34;83.87
72685;BME280;61365;52.162;4.500;2023-02-03T05:53:44;102382.22;;;9.18;84.04
72685;BME280;61365;52.162;4.500;2023-02-03T05:56:11;102385.50;;;9.10;83.62
72685;BME280;61365;52.162;4.500;2023-02-03T05:58:37;102393.50;;;9.15;83.65
72685;BME280;61365;52.162;4.500;2023-02-03T06:01:03;102396.44;;;8.97;83.08
72685;BME280;61365;52.162;4.500;2023-02-03T06:03:30;102402.84;;;9.07;84.96
72685;BME280;61365;52.162;4.500;2023-02-03T06:05:56;102385.06;;;9.25;82.86
72685;BME280;61365;52.162;4.500;2023-02-03T06:08:23;102398.56;;;9.09;83.94
72685;BME280;61365;52.162;4.500;2023-02-03T06:10:59;102399.50;;;9.11;85.24
72685;BME280;61365;52.162;4.500;2023-02-03T06:13:26;102394.56;;;9.22;84.60
72685;BME280;61365;52.162;4.500;2023-02-03T06:15:53;102381.81;;;9.04;84.74
72685;BME280;61365;52.162;4.500;2023-02-03T06:18:20;102390.78;;;9.12;84.90
72685;BME280;61365;52.162;4.500;2023-02-03T06:20:47;102399.53;;;9.12;84.24
72685;BME280;61365;52.162;4.500;2023-02-03T06:23:13;102392.78;;;8.92;85.01
72685;BME280;61365;52.162;4.500;2023-02-03T06:25:42;102385.00;;;8.93;84.28
72685;BME280;61365;52.162;4.500;2023-02-03T06:28:08;102401.19;;;9.10;84.90
72685;BME280;61365;52.162;4.500;2023-02-03T06:30:35;102408.09;;;9.07;84.79
72685;BME280;61365;52.162;4.500;2023-02-03T06:33:02;102399.81;;;8.93;85.08
72685;BME280;61365;52.162;4.500;2023-02-03T06:35:28;102417.06;;;8.86;86.00
72685;BME280;61365;52.162;4.500;2023-02-03T06:37:55;102405.78;;;8.89;85.53
72685;BME280;61365;52.162;4.500;2023-02-03T06:40:21;102422.72;;;9.00;85.35
72685;BME280;61365;52.162;4.500;2023-02-03T06:42:48;102429.06;;;9.08;84.26
72685;BME280;61365;52.162;4.500;2023-02-03T06:45:16;102424.78;;;9.10;85.21
72685;BME280;61365;52.162;4.500;2023-02-03T06:47:44;102430.72;;;9.05;84.02
72685;BME280;61365;52.162;4.500;2023-02-03T06:50:13;102439.66;;;9.11;84.26
72685;BME280;61365;52.162;4.500;2023-02-03T06:52:40;102455.09;;;9.02;85.50
72685;BME280;61365;52.162;4.500;2023-02-03T06:55:07;102446.97;;;9.22;85.22
72685;BME280;61365;52.162;4.500;2023-02-03T06:57:34;102460.91;;;9.21;85.44
72685;BME280;61365;52.162;4.500;2023-02-03T07:00:01;102445.63;;;9.36;82.83
72685;BME280;61365;52.162;4.500;2023-02-03T07:02:27;102448.66;;;9.21;84.84
72685;BME280;61365;52.162;4.500;2023-02-03T07:04:54;102442.16;;;9.08;85.64
72685;BME280;61365;52.162;4.500;2023-02-03T07:07:20;102454.00;;;9.24;84.91
72685;BME280;61365;52.162;4.500;2023-02-03T07:09:47;102454.06;;;9.26;84.51
72685;BME280;61365;52.162;4.500;2023-02-03T07:12:14;102450.44;;;9.22;84.21
72685;BME280;61365;52.162;4.500;2023-02-03T07:14:40;102467.09;;;9.24;84.31
72685;BME280;61365;52.162;4.500;2023-02-03T07:17:06;102465.25;;;9.20;84.73
72685;BME280;61365;52.162;4.500;2023-02-03T07:19:33;102458.78;;;9.09;85.33
72685;BME280;61365;52.162;4.500;2023-02-03T07:21:59;102466.22;;;9.24;85.24
72685;BME280;61365;52.162;4.500;2023-02-03T07:24:25;102453.75;;;9.44;84.37
72685;BME280;61365;52.162;4.500;2023-02-03T07:26:52;102461.41;;;9.38;84.51
72685;BME280;61365;52.162;4.500;2023-02-03T07:29:18;102453.44;;;9.33;83.96
72685;BME280;61365;52.162;4.500;2023-02-03T07:31:45;102455.13;;;9.32;84.05
72685;BME280;61365;52.162;4.500;2023-02-03T07:34:11;102448.97;;;9.30;83.90
72685;BME280;61365;52.162;4.500;2023-02-03T07:36:37;102448.59;;;9.18;84.54
72685;BME280;61365;52.162;4.500;2023-02-03T07:39:04;102449.91;;;9.32;84.36
72685;BME280;61365;52.162;4.500;2023-02-03T07:41:30;102464.91;;;9.38;83.79
72685;BME280;61365;52.162;4.500;2023-02-03T07:43:57;102446.53;;;9.37;83.56
72685;BME280;61365;52.162;4.500;2023-02-03T07:46:23;102435.16;;;9.36;84.26
72685;BME280;61365;52.162;4.500;2023-02-03T07:48:49;102457.53;;;9.25;84.50
72685;BME280;61365;52.162;4.500;2023-02-03T07:51:16;102466.97;;;9.20;84.87
72685;BME280;61365;52.162;4.500;2023-02-03T07:53:42;102468.41;;;9.10;85.26
72685;BME280;61365;52.162;4.500;2023-02-03T07:56:09;102473.66;;;9.10;84.84
72685;BME280;61365;52.162;4.500;2023-02-03T07:58:37;102483.72;;;9.25;84.58
72685;BME280;61365;52.162;4.500;2023-02-03T08:01:15;102488.50;;;9.38;83.93
72685;BME280;61365;52.162;4.500;2023-02-03T08:03:42;102493.91;;;9.44;84.36
72685;BME280;61365;52.162;4.500;2023-02-03T08:06:08;102488.72;;;9.46;84.77
72685;BME280;61365;52.162;4.500;2023-02-03T08:08:35;102486.97;;;9.45;83.66
72685;BME280;61365;52.162;4.500;2023-02-03T08:11:02;102489.91;;;9.27;84.56
72685;BME280;61365;52.162;4.500;2023-02-03T08:13:28;102491.94;;;9.37;84.44
72685;BME280;61365;52.162;4.500;2023-02-03T08:15:54;102504.81;;;9.29;85.56
72685;BME280;61365;52.162;4.500;2023-02-03T08:18:21;102510.28;;;9.37;84.36
72685;BME280;61365;52.162;4.500;2023-02-03T08:20:47;102517.81;;;9.26;84.39
72685;BME280;61365;52.162;4.500;2023-02-03T08:23:14;102520.00;;;9.40;84.34
72685;BME280;61365;52.162;4.500;2023-02-03T08:25:41;102508.97;;;9.23;85.51
72685;BME280;61365;52.162;4.500;2023-02-03T08:28:07;102516.03;;;9.25;84.11
72685;BME280;61365;52.162;4.500;2023-02-03T08:30:37;102522.78;;;9.46;84.35
72685;BME280;61365;52.162;4.500;2023-02-03T08:33:03;102517.00;;;9.56;84.08
72685;BME280;61365;52.162;4.500;2023-02-03T08:35:29;102513.50;;;9.56;83.36
72685;BME280;61365;52.162;4.500;2023-02-03T08:37:56;102510.44;;;9.42;82.75
72685;BME280;61365;52.162;4.500;2023-02-03T08:40:22;102513.06;;;9.42;83.08
72685;BME280;61365;52.162;4.500;2023-02-03T08:42:49;102518.56;;;9.51;83.75
72685;BME280;61365;52.162;4.500;2023-02-03T08:45:15;102527.88;;;9.41;83.70
72685;BME280;61365;52.162;4.500;2023-02-03T08:47:41;102535.94;;;9.48;83.77
72685;BME280;61365;52.162;4.500;2023-02-03T08:50:11;102532.59;;;9.52;83.39
72685;BME280;61365;52.162;4.500;2023-02-03T08:52:38;102539.31;;;9.72;83.47
72685;BME280;61365;52.162;4.500;2023-02-03T08:55:05;102544.53;;;9.71;81.52
72685;BME280;61365;52.162;4.500;2023-02-03T08:57:33;102552.97;;;9.62;84.23
72685;BME280;61365;52.162;4.500;2023-02-03T09:00:01;102545.28;;;9.67;83.96
72685;BME280;61365;52.162;4.500;2023-02-03T09:02:29;102563.81;;;9.44;84.90
72685;BME280;61365;52.162;4.500;2023-02-03T09:04:55;102560.81;;;9.60;83.48
72685;BME280;61365;52.162;4.500;2023-02-03T09:07:23;102554.59;;;9.57;84.74
72685;BME280;61365;52.162;4.500;2023-02-03T09:09:50;102555.06;;;9.74;84.40
72685;BME280;61365;52.162;4.500;2023-02-03T09:12:17;102566.88;;;9.88;83.60
72685;BME280;61365;52.162;4.500;2023-02-03T09:14:43;102556.31;;;9.85;83.24
72685;BME280;61365;52.162;4.500;2023-02-03T09:17:12;102560.47;;;9.79;83.19
72685;BME280;61365;52.162;4.500;2023-02-03T09:19:38;102555.84;;;9.70;82.47
72685;BME280;61365;52.162;4.500;2023-02-03T09:22:07;102553.59;;;9.82;82.83
72685;BME280;61365;52.162;4.500;2023-02-03T09:24:33;102556.53;;;9.93;82.98
72685;BME280;61365;52.162;4.500;2023-02-03T09:26:59;102561.00;;;9.97;81.98
72685;BME280;61365;52.162;4.500;2023-02-03T09:29:26;102558.47;;;10.00;81.35
72685;BME280;61365;52.162;4.500;2023-02-03T09:31:52;102565.09;;;9.87;82.22
72685;BME280;61365;52.162;4.500;2023-02-03T09:34:19;102576.84;;;10.00;81.31
72685;BME280;61365;52.162;4.500;2023-02-03T09:36:47;102563.09;;;10.73;80.16
72685;BME280;61365;52.162;4.500;2023-02-03T09:39:14;102565.66;;;10.38;79.57
72685;BME280;61365;52.162;4.500;2023-02-03T09:47:34;102590.53;;;10.51;79.46
72685;BME280;61365;52.162;4.500;2023-02-03T09:50:13;102590.03;;;10.34;81.05
72685;BME280;61365;52.162;4.500;2023-02-03T09:52:48;102604.94;;;10.35;80.57
72685;BME280;61365;52.162;4.500;2023-02-03T09:55:31;102579.56;;;10.66;79.72
72685;BME280;61365;52.162;4.500;2023-02-03T09:58:07;102592.13;;;10.78;77.67
72685;BME280;61365;52.162;4.500;2023-02-03T10:01:03;102607.59;;;10.67;78.37
72685;BME280;61365;52.162;4.500;2023-02-03T10:03:51;102616.06;;;10.89;78.31
72685;BME280;61365;52.162;4.500;2023-02-03T10:06:39;102614.56;;;10.66;79.30
72685;BME280;61365;52.162;4.500;2023-02-03T10:12:24;102633.59;;;10.90;78.04
72685;BME280;61365;52.162;4.500;2023-02-03T10:18:24;102624.50;;;11.12;77.82
72685;BME280;61365;52.162;4.500;2023-02-03T10:21:09;102619.44;;;10.85;78.15
72685;BME280;61365;52.162;4.500;2023-02-03T10:23:44;102632.09;;;11.00;77.90
72685;BME280;61365;52.162;4.500;2023-02-03T10:26:17;102644.09;;;10.58;78.75
72685;BME280;61365;52.162;4.500;2023-02-03T10:28:53;102639.66;;;10.55;78.30
72685;BME280;61365;52.162;4.500;2023-02-03T10:31:31;102643.81;;;10.48;80.55
72685;BME280;61365;52.162;4.500;2023-02-03T10:34:19;102650.38;;;10.63;78.59
72685;BME280;61365;52.162;4.500;2023-02-03T10:39:51;102671.88;;;11.14;77.12
72685;BME280;61365;52.162;4.500;2023-02-03T10:42:19;102661.72;;;10.94;78.73
72685;BME280;61365;52.162;4.500;2023-02-03T10:44:51;102659.50;;;10.77;79.23
72685;BME280;61365;52.162;4.500;2023-02-03T10:50:19;102674.63;;;10.86;78.68
72685;BME280;61365;52.162;4.500;2023-02-03T10:52:47;102664.28;;;10.92;78.87
72685;BME280;61365;52.162;4.500;2023-02-03T10:57:50;102676.34;;;10.84;78.79
72685;BME280;61365;52.162;4.500;2023-02-03T11:03:04;102667.59;;;10.85;78.22
72685;BME280;61365;52.162;4.500;2023-02-03T11:05:33;102664.16;;;10.56;78.62
72685;BME280;61365;52.162;4.500;2023-02-03T11:08:00;102664.72;;;10.76;79.68
72685;BME280;61365;52.162;4.500;2023-02-03T11:10:38;102671.38;;;10.63;78.70
72685;BME280;61365;52.162;4.500;2023-02-03T11:13:22;102670.31;;;10.56;79.96
72685;BME280;61365;52.162;4.500;2023-02-03T11:16:15;102666.03;;;10.60;80.32
72685;BME280;61365;52.162;4.500;2023-02-03T11:24:17;102680.22;;;10.66;79.25
72685;BME280;61365;52.162;4.500;2023-02-03T11:27:10;102680.00;;;10.59;80.15
72685;BME280;61365;52.162;4.500;2023-02-03T11:29:42;102671.31;;;10.61;79.36
72685;BME280;61365;52.162;4.500;2023-02-03T11:32:21;102683.44;;;10.88;78.11
72685;BME280;61365;52.162;4.500;2023-02-03T11:35:04;102665.78;;;10.82;78.93
72685;BME280;61365;52.162;4.500;2023-02-03T11:37:56;102669.88;;;10.73;79.15
72685;BME280;61365;52.162;4.500;2023-02-03T11:45:31;102674.22;;;10.71;79.54
72685;BME280;61365;52.162;4.500;2023-02-03T11:50:50;102687.69;;;10.83;79.94
72685;BME280;61365;52.162;4.500;2023-02-03T11:59:48;102670.94;;;10.79;79.30
72685;BME280;61365;52.162;4.500;2023-02-03T12:05:36;102671.41;;;10.64;79.71
72685;BME280;61365;52.162;4.500;2023-02-03T12:09:44;102671.09;;;10.84;79.47
72685;BME280;61365;52.162;4.500;2023-02-03T12:15:23;102668.66;;;10.92;78.57
72685;BME280;61365;52.162;4.500;2023-02-03T12:19:00;102676.34;;;10.84;79.66
72685;BME280;61365;52.162;4.500;2023-02-03T12:21:49;102679.88;;;10.86;79.49
72685;BME280;61365;52.162;4.500;2023-02-03T12:29:42;102706.97;;;10.84;79.79
72685;BME280;61365;52.162;4.500;2023-02-03T12:35:19;102697.34;;;10.84;79.82
72685;BME280;61365;52.162;4.500;2023-02-03T12:38:13;102700.41;;;11.01;79.04
72685;BME280;61365;52.162;4.500;2023-02-03T12:40:54;102692.13;;;10.86;78.85
72685;BME280;61365;52.162;4.500;2023-02-03T12:43:26;102700.09;;;10.89;80.69
72685;BME280;61365;52.162;4.500;2023-02-03T13:06:15;102710.34;;;10.49;82.81
72685;BME280;61365;52.162;4.500;2023-02-03T13:08:55;102710.13;;;10.41;81.86
72685;BME280;61365;52.162;4.500;2023-02-03T13:11:39;102718.25;;;10.50;83.68
72685;BME280;61365;52.162;4.500;2023-02-03T13:16:50;102732.84;;;10.41;83.12
72685;BME280;61365;52.162;4.500;2023-02-03T13:19:23;102728.56;;;10.15;83.99
72685;BME280;61365;52.162;4.500;2023-02-03T13:21:54;102728.69;;;10.20;83.87
72685;BME280;61365;52.162;4.500;2023-02-03T13:24:24;102739.22;;;10.21;84.29
72685;BME280;61365;52.162;4.500;2023-02-03T13:27:16;102745.28;;;10.19;83.06
72685;BME280;61365;52.162;4.500;2023-02-03T13:30:26;102756.72;;;10.21;85.03
72685;BME280;61365;52.162;4.500;2023-02-03T13:33:25;102754.06;;;10.19;84.47
72685;BME280;61365;52.162;4.500;2023-02-03T13:39:22;102756.78;;;9.95;84.97
72685;BME280;61365;52.162;4.500;2023-02-03T13:42:06;102753.53;;;10.04;85.62
72685;BME280;61365;52.162;4.500;2023-02-03T13:44:38;102752.16;;;9.88;86.50
72685;BME280;61365;52.162;4.500;2023-02-03T13:47:14;102746.81;;;10.12;84.60
72685;BME280;61365;52.162;4.500;2023-02-03T13:49:47;102739.28;;;10.23;84.49
72685;BME280;61365;52.162;4.500;2023-02-03T13:52:24;102746.03;;;10.15;84.74
72685;BME280;61365;52.162;4.500;2023-02-03T13:54:52;102749.81;;;10.25;84.93
72685;BME280;61365;52.162;4.500;2023-02-03T13:57:27;102754.78;;;10.43;84.15
72685;BME280;61365;52.162;4.500;2023-02-03T14:00:01;102752.16;;;10.43;84.01
72685;BME280;61365;52.162;4.500;2023-02-03T14:02:52;102764.94;;;10.61;82.67
72685;BME280;61365;52.162;4.500;2023-02-03T14:05:41;102765.47;;;10.49;82.60
72685;BME280;61365;52.162;4.500;2023-02-03T14:16:50;102771.59;;;10.49;82.93
72685;BME280;61365;52.162;4.500;2023-02-03T14:22:03;102777.44;;;10.39;83.26
72685;BME280;61365;52.162;4.500;2023-02-03T14:24:43;102775.78;;;10.72;81.02
72685;BME280;61365;52.162;4.500;2023-02-03T14:27:26;102780.69;;;10.61;80.57
72685;BME280;61365;52.162;4.500;2023-02-03T14:30:21;102781.66;;;10.63;80.85
72685;BME280;61365;52.162;4.500;2023-02-03T14:32:48;102779.31;;;10.43;82.88
72685;BME280;61365;52.162;4.500;2023-02-03T14:35:20;102781.56;;;10.61;82.77
72685;BME280;61365;52.162;4.500;2023-02-03T14:38:06;102785.25;;;10.66;82.22
72685;BME280;61365;52.162;4.500;2023-02-03T14:40:53;102792.59;;;10.49;81.81
72685;BME280;61365;52.162;4.500;2023-02-03T14:43:48;102798.03;;;10.56;82.12
72685;BME280;61365;52.162;4.500;2023-02-03T14:49:57;102812.84;;;10.26;82.80
72685;BME280;61365;52.162;4.500;2023-02-03T14:52:32;102806.31;;;10.39;83.14
72685;BME280;61365;52.162;4.500;2023-02-03T14:58:22;102807.25;;;10.41;82.42
72685;BME280;61365;52.162;4.500;2023-02-03T15:00:57;102805.94;;;10.28;82.14
72685;BME280;61365;52.162;4.500;2023-02-03T15:03:25;102810.50;;;10.35;82.76
72685;BME280;61365;52.162;4.500;2023-02-03T15:06:00;102810.50;;;10.35;82.84
72685;BME280;61365;52.162;4.500;2023-02-03T15:08:29;102808.69;;;10.60;82.06
72685;BME280;61365;52.162;4.500;2023-02-03T15:11:32;102803.16;;;10.51;83.76
72685;BME280;61365;52.162;4.500;2023-02-03T15:14:26;102813.78;;;10.56;82.66
72685;BME280;61365;52.162;4.500;2023-02-03T15:17:02;102817.06;;;10.21;83.37
72685;BME280;61365;52.162;4.500;2023-02-03T15:19:41;102819.19;;;10.33;83.86
72685;BME280;61365;52.162;4.500;2023-02-03T15:22:40;102821.41;;;10.46;82.94
72685;BME280;61365;52.162;4.500;2023-02-03T15:25:16;102818.91;;;10.51;82.69
72685;BME280;61365;52.162;4.500;2023-02-03T15:27:44;102822.63;;;10.58;81.14
72685;BME280;61365;52.162;4.500;2023-02-03T15:30:22;102828.50;;;10.23;83.38